createdAt,value
2023-04-14T00:01:07.561Z,31.89
2023-04-14T00:03:13.663Z,31.77
2023-04-14T00:05:18.952Z,31.69
2023-04-14T00:07:24.095Z,31.77
2023-04-14T00:09:29.152Z,31.72
2023-04-14T00:11:34.308Z,31.78
2023-04-14T00:13:39.302Z,31.76
2023-04-14T00:15:44.308Z,31.8
2023-04-14T00:17:49.466Z,31.66
2023-04-14T00:19:54.506Z,31.71
2023-04-14T00:21:59.555Z,31.76
2023-04-14T00:24:04.689Z,31.8
2023-04-14T00:26:09.653Z,31.85
2023-04-14T00:28:14.766Z,31.82
2023-04-14T00:30:19.834Z,31.86
2023-04-14T00:32:25.012Z,31.8
2023-04-14T00:34:30.004Z,31.9
2023-04-14T00:36:34.977Z,31.95
2023-04-14T00:38:40.018Z,31.96
2023-04-14T00:40:44.998Z,32.02
2023-04-14T00:42:49.989Z,32.01
2023-04-14T00:44:55.004Z,31.96
2023-04-14T00:47:00.023Z,32.01
2023-04-14T00:49:05.688Z,32.02
2023-04-14T00:51:10.670Z,32.09
2023-04-14T00:53:15.753Z,31.97
2023-04-14T00:55:20.766Z,32.02
2023-04-14T00:57:25.847Z,31.96
2023-04-14T00:59:30.940Z,32.03
2023-04-14T01:01:36.138Z,32
2023-04-14T01:03:41.645Z,31.97
2023-04-14T01:05:46.772Z,32.05
2023-04-14T01:07:51.762Z,31.99
2023-04-14T01:09:56.759Z,31.98
2023-04-14T01:12:01.788Z,32.03
2023-04-14T01:14:06.854Z,31.97
2023-04-14T01:16:11.935Z,31.95
2023-04-14T01:18:16.935Z,32.07
2023-04-14T01:20:21.931Z,32.01
2023-04-14T01:22:26.900Z,32.12
2023-04-14T01:24:31.901Z,32.02
2023-04-14T01:26:36.987Z,32.07
2023-04-14T01:28:41.962Z,31.98
2023-04-14T01:30:47.015Z,32.37
2023-04-14T01:32:52.292Z,32.34
2023-04-14T01:34:57.262Z,32.12
2023-04-14T01:37:02.253Z,32.07
2023-04-14T01:39:07.354Z,32.21
2023-04-14T01:41:12.356Z,32.09
2023-04-14T01:43:17.319Z,32.47
2023-04-14T01:45:22.338Z,32.38
2023-04-14T01:47:27.618Z,32.07
2023-04-14T01:49:32.777Z,32.13
2023-04-14T01:51:37.799Z,32.44
2023-04-14T01:53:42.824Z,32.4
2023-04-14T01:55:47.856Z,32.15
2023-04-14T01:57:52.962Z,32.16
2023-04-14T01:59:57.976Z,32.23
2023-04-14T02:02:03.196Z,32.37
2023-04-14T02:04:08.749Z,32.63
2023-04-14T02:06:13.861Z,32.31
2023-04-14T02:08:18.862Z,32.26
2023-04-14T02:10:23.882Z,32.2
2023-04-14T02:12:28.922Z,32.22
2023-04-14T02:14:33.874Z,32.23
2023-04-14T02:16:39.144Z,32.1
2023-04-14T02:18:44.293Z,32.29
2023-04-14T02:20:49.379Z,32.12
2023-04-14T02:22:54.479Z,32.15
2023-04-14T02:24:59.480Z,32.2
2023-04-14T02:27:04.507Z,32.25
2023-04-14T02:29:09.623Z,32.1
2023-04-14T02:31:14.785Z,32.13
2023-04-14T02:33:19.833Z,32.12
2023-04-14T02:35:24.825Z,32.25
2023-04-14T02:37:29.927Z,32.15
2023-04-14T02:39:35.000Z,32.13
2023-04-14T02:41:39.976Z,32.16
2023-04-14T02:43:45.337Z,32.09
2023-04-14T02:45:50.540Z,32.15
2023-04-14T02:47:55.751Z,32.16
2023-04-14T02:50:00.747Z,32.22
2023-04-14T02:52:05.737Z,32.19
2023-04-14T02:54:10.740Z,32.12
2023-04-14T02:56:15.836Z,31.98
2023-04-14T02:58:20.818Z,32.01
2023-04-14T03:00:25.794Z,32.05
2023-04-14T03:02:31.306Z,32
2023-04-14T03:04:36.686Z,32.1
2023-04-14T03:06:41.900Z,32.16
2023-04-14T03:08:46.926Z,32.16
2023-04-14T03:10:52.014Z,32.29
2023-04-14T03:12:57.010Z,32.14
2023-04-14T03:15:02.031Z,32.03
2023-04-14T03:17:07.167Z,31.98
2023-04-14T03:19:12.148Z,32.05
2023-04-14T03:21:17.160Z,32.06
2023-04-14T03:23:22.128Z,32.15
2023-04-14T03:25:27.079Z,32.08
2023-04-14T03:27:32.086Z,32.06
2023-04-14T03:29:37.024Z,32.06
2023-04-14T03:31:42.125Z,32.06
2023-04-14T03:33:47.240Z,32.06
2023-04-14T03:35:52.296Z,32.03
2023-04-14T03:37:57.314Z,32.04
2023-04-14T03:40:02.501Z,32.11
2023-04-14T03:42:07.554Z,32.15
2023-04-14T03:44:12.971Z,32.21
2023-04-14T03:46:18.756Z,32.18
2023-04-14T03:48:24.243Z,32.16
2023-04-14T03:50:29.296Z,32.08
2023-04-14T03:52:34.322Z,32.22
2023-04-14T03:54:39.346Z,32.2
2023-04-14T03:56:44.334Z,32.23
2023-04-14T03:58:49.493Z,32.33
2023-04-14T04:00:54.471Z,32.26
2023-04-14T04:03:00.200Z,32.27
2023-04-14T04:05:05.648Z,32.29
2023-04-14T04:07:10.691Z,32.27
2023-04-14T04:09:15.800Z,32.41
2023-04-14T04:11:20.809Z,32.38
2023-04-14T04:13:25.841Z,32.48
2023-04-14T04:15:30.942Z,32.53
2023-04-14T04:17:36.230Z,32.47
2023-04-14T04:19:41.250Z,32.49
2023-04-14T04:21:46.290Z,32.53
2023-04-14T04:23:51.237Z,32.57
2023-04-14T04:25:56.217Z,32.56
2023-04-14T04:28:01.228Z,32.67
2023-04-14T04:30:06.397Z,32.67
2023-04-14T04:32:11.561Z,32.72
2023-04-14T04:34:16.573Z,32.62
2023-04-14T04:36:21.553Z,32.66
2023-04-14T04:38:26.510Z,32.62
2023-04-14T04:40:31.517Z,32.66
2023-04-14T04:42:36.614Z,32.86
2023-04-14T04:44:41.613Z,32.66
2023-04-14T04:46:46.653Z,32.72
2023-04-14T04:48:51.627Z,32.72
2023-04-14T04:50:56.707Z,32.69
2023-04-14T04:53:01.763Z,32.76
2023-04-14T04:55:06.871Z,32.87
2023-04-14T04:57:13.475Z,32.9
2023-04-14T04:59:18.523Z,32.84
2023-04-14T05:01:23.676Z,33.4
2023-04-14T05:03:28.924Z,32.98
2023-04-14T05:05:33.953Z,32.91
2023-04-14T05:07:38.936Z,32.84
2023-04-14T05:09:43.920Z,32.83
2023-04-14T05:11:48.898Z,32.9
2023-04-14T05:13:53.876Z,32.89
2023-04-14T05:15:59.027Z,32.87
2023-04-14T05:18:04.394Z,32.91
2023-04-14T05:20:09.420Z,32.92
2023-04-14T05:22:14.413Z,32.93
2023-04-14T05:24:19.418Z,32.88
2023-04-14T05:27:14.738Z,32.84
2023-04-14T05:29:19.938Z,32.99
2023-04-14T05:31:25.040Z,32.97
2023-04-14T05:33:30.097Z,34.14
2023-04-14T05:35:35.117Z,35.12
2023-04-14T05:37:40.080Z,34.33
2023-04-14T05:39:45.164Z,34.33
2023-04-14T05:41:50.139Z,34.4
2023-04-14T05:43:55.139Z,34.48
2023-04-14T05:46:00.144Z,34.58
2023-04-14T05:48:05.327Z,34.43
2023-04-14T05:50:10.411Z,34.66
2023-04-14T05:52:15.391Z,34.72
2023-04-14T05:54:20.358Z,34.64
2023-04-14T05:56:25.373Z,34.65
2023-04-14T05:58:30.358Z,34.58
2023-04-14T06:00:35.340Z,34.66
2023-04-14T06:02:40.995Z,34.88
2023-04-14T06:04:46.668Z,34.82
2023-04-14T06:06:51.718Z,35.06
2023-04-14T06:08:56.755Z,34.92
2023-04-14T06:11:01.760Z,35.03
2023-04-14T06:13:06.760Z,35.09
2023-04-14T06:15:11.824Z,35.12
2023-04-14T06:17:16.902Z,35.04
2023-04-14T06:19:21.975Z,35.08
2023-04-14T06:21:27.008Z,35.1
2023-04-14T06:23:31.997Z,35.26
2023-04-14T06:25:37.014Z,35.13
2023-04-14T06:27:42.166Z,35.55
2023-04-14T06:29:47.145Z,35.8
2023-04-14T06:31:52.231Z,35.75
2023-04-14T06:33:57.256Z,35.68
2023-04-14T06:36:02.365Z,35.55
2023-04-14T06:38:07.532Z,35.68
2023-04-14T06:40:12.551Z,35.58
2023-04-14T06:42:17.576Z,35.48
2023-04-14T06:44:22.588Z,35.46
2023-04-14T06:46:28.166Z,35.45
2023-04-14T06:48:33.190Z,35.43
2023-04-14T06:50:38.202Z,35.41
2023-04-14T06:52:43.387Z,35.39
2023-04-14T06:54:48.450Z,35.42
2023-04-14T06:56:53.591Z,35.45
2023-04-14T06:58:58.644Z,35.33
2023-04-14T07:01:04.188Z,35.39
2023-04-14T07:03:09.631Z,35.45
2023-04-14T07:05:14.918Z,35.51
2023-04-14T07:07:19.989Z,35.5
2023-04-14T07:09:25.228Z,35.56
2023-04-14T07:11:30.447Z,35.47
2023-04-14T07:13:35.460Z,35.6
2023-04-14T07:15:40.655Z,35.51
2023-04-14T07:17:46.063Z,35.56
2023-04-14T07:19:51.135Z,35.49
2023-04-14T07:21:56.178Z,35.47
2023-04-14T07:24:02.317Z,35.42
2023-04-14T07:26:07.524Z,35.5
2023-04-14T07:28:12.525Z,35.51
2023-04-14T07:30:17.609Z,35.55
2023-04-14T07:32:22.852Z,35.57
2023-04-14T07:34:30.521Z,35.65
2023-04-14T07:36:35.563Z,35.56
2023-04-14T07:38:40.644Z,35.59
2023-04-14T07:40:45.688Z,35.47
2023-04-14T07:42:50.745Z,35.48
2023-04-14T07:44:55.738Z,35.42
2023-04-14T07:47:00.755Z,35.28
2023-04-14T07:49:05.900Z,35.27
2023-04-14T07:51:10.952Z,35.42
2023-04-14T07:53:15.971Z,35.41
2023-04-14T07:55:21.059Z,35.32
2023-04-14T07:57:26.063Z,35.34
2023-04-14T07:59:31.054Z,35.35
2023-04-14T08:01:36.087Z,35.39
2023-04-14T08:03:46.465Z,35.33
2023-04-14T08:05:51.875Z,35.29
2023-04-14T08:07:56.906Z,35.38
2023-04-14T08:10:01.911Z,35.29
2023-04-14T08:12:06.958Z,35.32
2023-04-14T08:14:11.955Z,35.39
2023-04-14T08:16:17.196Z,35.28
2023-04-14T08:18:22.196Z,35.39
2023-04-14T08:20:27.247Z,35.46
2023-04-14T08:22:32.268Z,35.54
2023-04-14T08:24:39.241Z,35.79
2023-04-14T08:26:44.249Z,36.08
2023-04-14T08:28:49.236Z,36.03
2023-04-14T08:30:54.341Z,35.8
2023-04-14T08:33:01.868Z,35.74
2023-04-14T08:35:44.509Z,35.84
2023-04-14T08:37:49.454Z,35.81
2023-04-14T08:39:54.384Z,35.74
2023-04-14T08:41:59.323Z,35.7
2023-04-14T08:44:04.316Z,35.72
2023-04-14T08:46:09.484Z,35.8
2023-04-14T08:48:14.505Z,35.79
2023-04-14T08:50:19.636Z,35.88
2023-04-14T08:52:24.724Z,35.99
2023-04-14T08:54:29.739Z,36.25
2023-04-14T08:56:34.824Z,36.21
2023-04-14T08:58:39.917Z,36.15
2023-04-14T09:00:45.158Z,36.02
2023-04-14T09:02:50.871Z,36.11
2023-04-14T09:04:56.656Z,36.02
2023-04-14T09:07:01.752Z,36.01
2023-04-14T09:09:06.779Z,36.13
2023-04-14T09:11:11.779Z,36.12
2023-04-14T09:13:16.886Z,36.13
2023-04-14T09:15:21.974Z,36.11
2023-04-14T09:17:27.143Z,36.04
2023-04-14T09:19:32.175Z,36.22
2023-04-14T09:21:56.729Z,36.17
2023-04-14T09:24:02.652Z,36.1
2023-04-14T09:26:07.759Z,36.11
2023-04-14T09:28:12.780Z,36.05
2023-04-14T09:30:17.909Z,36.06
2023-04-14T09:32:22.997Z,36.02
2023-04-14T09:34:28.291Z,35.91
2023-04-14T09:36:33.351Z,35.87
2023-04-14T09:38:38.416Z,35.88
2023-04-14T09:40:43.387Z,35.86
2023-04-14T09:42:48.466Z,35.89
2023-04-14T09:44:53.442Z,35.95
2023-04-14T09:46:59.341Z,36.2
2023-04-14T09:49:04.397Z,36.32
2023-04-14T09:51:09.565Z,36.57
2023-04-14T09:53:14.582Z,36.52
2023-04-14T09:55:19.680Z,36.76
2023-04-14T09:57:24.706Z,36.43
2023-04-14T09:59:29.733Z,36.54
2023-04-14T10:01:35.590Z,36.56
2023-04-14T10:03:40.876Z,36.52
2023-04-14T10:05:46.049Z,36.3
2023-04-14T10:07:51.035Z,36.27
2023-04-14T10:09:56.008Z,36.41
2023-04-14T10:12:00.973Z,36.46
2023-04-14T10:14:06.038Z,36.38
2023-04-14T10:16:11.189Z,36.45
2023-04-14T10:18:16.413Z,36.25
2023-04-14T10:20:21.549Z,36.28
2023-04-14T10:22:26.547Z,36.23
2023-04-14T10:24:31.634Z,36.2
2023-04-14T10:26:36.786Z,36.5
2023-04-14T10:28:41.797Z,36.46
2023-04-14T10:30:46.832Z,36.35
2023-04-14T10:32:51.931Z,36.29
2023-04-14T10:34:56.883Z,36.56
2023-04-14T10:37:01.815Z,36.24
2023-04-14T10:39:06.959Z,36.3
2023-04-14T10:41:11.978Z,36.21
2023-04-14T10:43:17.105Z,36.04
2023-04-14T10:45:22.100Z,35.99
2023-04-14T10:47:27.606Z,35.91
2023-04-14T10:49:32.933Z,35.87
2023-04-14T10:51:38.062Z,36.01
2023-04-14T10:53:43.075Z,35.95
2023-04-14T10:55:54.467Z,35.9
2023-04-14T10:57:59.498Z,36.02
2023-04-14T11:00:04.606Z,36.07
2023-04-14T11:02:09.886Z,36.02
2023-04-14T11:04:15.401Z,36.04
2023-04-14T11:06:20.862Z,35.97
2023-04-14T11:08:25.843Z,35.99
2023-04-14T11:10:30.998Z,36.12
2023-04-14T11:12:36.086Z,36.08
2023-04-14T11:14:41.048Z,36.13
2023-04-14T11:17:03.631Z,36.23
2023-04-14T11:19:09.371Z,36.41
2023-04-14T11:21:14.421Z,36.35
2023-04-14T11:23:19.489Z,36.47
2023-04-14T11:25:26.854Z,36.53
2023-04-14T11:27:31.906Z,36.56
2023-04-14T11:29:37.023Z,36.45
2023-04-14T11:31:42.242Z,36.73
2023-04-14T11:33:47.309Z,36.77
2023-04-14T11:35:52.300Z,36.98
2023-04-14T11:37:57.510Z,36.88
2023-04-14T11:40:02.661Z,37.21
2023-04-14T11:42:07.674Z,37.24
2023-04-14T11:44:12.687Z,37.13
2023-04-14T11:46:17.965Z,37.05
2023-04-14T11:48:23.110Z,36.91
2023-04-14T11:50:28.133Z,36.77
2023-04-14T11:52:33.122Z,36.63
2023-04-14T11:54:38.374Z,36.52
2023-04-14T11:56:43.447Z,36.5
2023-04-14T11:58:48.443Z,36.38
2023-04-14T12:00:57.521Z,36.36
2023-04-14T12:03:03.356Z,36.35
2023-04-14T12:05:09.277Z,36.28
2023-04-14T12:07:15.530Z,36.18
2023-04-14T12:09:20.560Z,36.18
2023-04-14T12:11:25.543Z,36.18
2023-04-14T12:13:30.688Z,36.13
2023-04-14T12:15:35.750Z,36.14
2023-04-14T12:17:41.046Z,36.24
2023-04-14T12:19:46.134Z,35.83
2023-04-14T12:21:51.192Z,36.21
2023-04-14T12:23:56.225Z,36.51
2023-04-14T12:26:01.316Z,36.97
2023-04-14T12:28:06.345Z,37.3
2023-04-14T12:30:11.360Z,37.35
2023-04-14T12:32:16.381Z,37.48
2023-04-14T12:34:21.474Z,37.43
2023-04-14T12:36:50.921Z,37.3
2023-04-14T12:38:56.123Z,37.27
2023-04-14T12:41:01.189Z,37.36
2023-04-14T12:43:06.393Z,37.28
2023-04-14T12:45:11.452Z,37.15
2023-04-14T12:47:16.754Z,37.07
2023-04-14T12:49:21.829Z,36.99
2023-04-14T12:51:26.812Z,36.96
2023-04-14T12:53:31.923Z,36.88
2023-04-14T12:55:36.930Z,36.87
2023-04-14T12:57:41.963Z,36.83
2023-04-14T12:59:47.300Z,36.88
2023-04-14T13:01:52.513Z,36.78
2023-04-14T13:03:58.647Z,36.81
2023-04-14T13:06:03.839Z,36.74
2023-04-14T13:08:08.952Z,36.68
2023-04-14T13:10:14.034Z,36.67
2023-04-14T13:12:19.003Z,36.65
2023-04-14T13:14:24.064Z,36.61
2023-04-14T13:16:32.407Z,36.62
2023-04-14T13:18:38.462Z,36.6
2023-04-14T13:20:43.501Z,36.56
2023-04-14T13:22:49.753Z,36.52
2023-04-14T13:24:54.747Z,36.77
2023-04-14T13:26:59.704Z,36.63
2023-04-14T13:29:05.656Z,36.77
2023-04-14T13:31:10.680Z,36.73
2023-04-14T13:33:15.700Z,36.94
2023-04-14T13:35:20.764Z,36.95
2023-04-14T13:37:25.778Z,36.97
2023-04-14T13:39:30.835Z,37.24
2023-04-14T13:41:35.876Z,37.16
2023-04-14T13:43:40.950Z,37.12
2023-04-14T13:45:46.250Z,37.25
2023-04-14T13:47:51.427Z,37.09
2023-04-14T13:49:56.439Z,37.27
2023-04-14T13:52:01.518Z,37.22
2023-04-14T13:54:06.495Z,37.31
2023-04-14T13:56:11.711Z,37.15
2023-04-14T13:58:16.629Z,37.13
2023-04-14T14:00:21.790Z,37.25
2023-04-14T14:02:27.371Z,37.17
2023-04-14T14:04:32.917Z,37.2
2023-04-14T14:06:38.140Z,37.21
2023-04-14T14:08:43.226Z,37.15
2023-04-14T14:10:48.410Z,37.06
2023-04-14T14:12:53.380Z,37
2023-04-14T14:14:58.396Z,36.99
2023-04-14T14:17:03.427Z,37.17
2023-04-14T14:19:08.588Z,36.95
2023-04-14T14:21:13.607Z,36.98
2023-04-14T14:23:18.688Z,36.97
2023-04-14T14:25:24.112Z,36.86
2023-04-14T14:27:29.179Z,36.85
2023-04-14T14:29:34.228Z,36.91
2023-04-14T14:31:39.529Z,36.88
2023-04-14T14:33:44.555Z,36.92
2023-04-14T14:35:50.029Z,36.93
2023-04-14T14:37:55.137Z,36.91
2023-04-14T14:40:00.299Z,37
2023-04-14T14:42:05.454Z,37.05
2023-04-14T14:44:10.488Z,36.97
2023-04-14T14:46:15.634Z,37.03
2023-04-14T14:48:21.099Z,37.01
2023-04-14T14:50:26.140Z,37.14
2023-04-14T14:52:34.252Z,37.12
2023-04-14T14:54:39.377Z,36.98
2023-04-14T14:56:44.460Z,36.97
2023-04-14T14:58:49.468Z,37.1
2023-04-14T15:00:54.466Z,37.03
2023-04-14T15:03:00.191Z,37.12
2023-04-14T15:05:05.247Z,36.98
2023-04-14T15:07:10.368Z,37.01
2023-04-14T15:09:15.366Z,37.07
2023-04-14T15:11:20.771Z,37.12
2023-04-14T15:13:25.761Z,37.39
2023-04-14T15:15:30.884Z,37.33
2023-04-14T15:17:36.117Z,37.19
2023-04-14T15:19:43.108Z,37.19
2023-04-14T15:21:48.226Z,37.21
2023-04-14T15:23:53.328Z,37.2
2023-04-14T15:25:58.344Z,37.21
2023-04-14T15:28:03.411Z,37.35
2023-04-14T15:30:08.519Z,37.25
2023-04-14T15:32:14.003Z,37.35
2023-04-14T15:34:19.319Z,37.38
2023-04-14T15:36:24.310Z,37.08
2023-04-14T15:38:29.380Z,37.05
2023-04-14T15:40:34.359Z,37.15
2023-04-14T15:42:39.375Z,37.52
2023-04-14T15:44:44.330Z,36.93
2023-04-14T15:46:49.369Z,37.21
2023-04-14T15:48:54.346Z,37.02
2023-04-14T15:50:59.403Z,36.64
2023-04-14T15:53:04.365Z,36.46
2023-04-14T15:55:11.764Z,36.38
2023-04-14T15:57:16.767Z,36.36
2023-04-14T15:59:21.778Z,36.18
2023-04-14T16:01:27.025Z,36.28
2023-04-14T16:03:32.639Z,36.76
2023-04-14T16:05:37.846Z,36.66
2023-04-14T16:07:42.887Z,36.17
2023-04-14T16:09:47.950Z,36.85
2023-04-14T16:11:52.926Z,37.47
2023-04-14T16:13:58.060Z,37.26
2023-04-14T16:16:03.229Z,37.42
2023-04-14T16:18:08.246Z,37.19
2023-04-14T16:20:13.399Z,37.37
2023-04-14T16:22:18.454Z,37.27
2023-04-14T16:24:23.450Z,37.15
2023-04-14T16:26:28.602Z,37.58
2023-04-14T16:28:33.710Z,37.59
2023-04-14T16:30:40.492Z,37.56
2023-04-14T16:32:45.559Z,37.53
2023-04-14T16:34:50.566Z,37.31
2023-04-14T16:36:55.568Z,37.24
2023-04-14T16:39:01.296Z,37.18
2023-04-14T16:41:06.479Z,37.14
2023-04-14T16:43:11.441Z,37.12
2023-04-14T16:45:16.509Z,37.12
2023-04-14T16:47:21.536Z,37.07
2023-04-14T16:49:26.555Z,37.1
2023-04-14T16:51:31.567Z,37.14
2023-04-14T16:53:36.711Z,37.12
2023-04-14T16:55:41.774Z,37.06
2023-04-14T16:57:46.818Z,37.13
2023-04-14T16:59:51.799Z,37.11
2023-04-14T17:01:57.339Z,37.44
2023-04-14T17:04:04.162Z,37.27
2023-04-14T17:06:09.670Z,37.26
2023-04-14T17:08:16.104Z,37.73
2023-04-14T17:10:21.048Z,37.72
2023-04-14T17:12:26.076Z,37.58
2023-04-14T17:14:31.064Z,37.76
2023-04-14T17:16:36.232Z,37.86
2023-04-14T17:18:41.296Z,38.02
2023-04-14T17:20:46.328Z,38.31
2023-04-14T17:22:53.427Z,37.94
2023-04-14T17:24:58.595Z,38.27
2023-04-14T17:27:03.612Z,38.13
2023-04-14T17:29:08.681Z,38.6
2023-04-14T17:31:14.000Z,38.91
2023-04-14T17:33:19.090Z,38.77
2023-04-14T17:35:24.112Z,38.53
2023-04-14T17:37:29.123Z,38.06
2023-04-14T17:39:34.172Z,37.95
2023-04-14T17:41:39.264Z,37.85
2023-04-14T17:43:44.390Z,38.07
2023-04-14T17:45:49.551Z,38.01
2023-04-14T17:47:54.812Z,38.02
2023-04-14T17:49:59.961Z,37.99
2023-04-14T17:52:05.056Z,38
2023-04-14T17:54:10.076Z,37.89
2023-04-14T17:56:15.093Z,37.84
2023-04-14T17:58:20.123Z,37.77
2023-04-14T18:00:25.187Z,37.95
2023-04-14T18:02:30.501Z,38.08
2023-04-14T18:04:35.517Z,37.99
2023-04-14T18:06:40.653Z,37.62
2023-04-14T18:08:45.665Z,37.17
2023-04-14T18:10:50.726Z,37.07
2023-04-14T18:12:55.839Z,36.86
2023-04-14T18:15:00.855Z,37.21
2023-04-14T18:17:06.037Z,37.24
2023-04-14T18:19:11.116Z,36.67
2023-04-14T18:21:16.385Z,36.53
2023-04-14T18:23:21.483Z,36.53
2023-04-14T18:25:26.495Z,36.51
2023-04-14T18:29:45.759Z,36.14
2023-04-14T18:31:50.893Z,36.08
2023-04-14T18:33:56.021Z,36.12
2023-04-14T18:36:01.265Z,36.01
2023-04-14T18:38:06.355Z,36.06
2023-04-14T18:40:11.485Z,36.15
2023-04-14T18:42:16.666Z,36.02
2023-04-14T18:44:21.777Z,36.1
2023-04-14T18:46:27.074Z,35.89
2023-04-14T18:48:32.356Z,36.17
2023-04-14T18:50:37.412Z,36.56
2023-04-14T18:52:42.446Z,36.47
2023-04-14T18:54:47.467Z,36.42
2023-04-14T18:56:52.511Z,36.49
2023-04-14T18:58:57.571Z,36.63
2023-04-14T19:01:02.847Z,36.61
2023-04-14T19:03:08.226Z,36.98
2023-04-14T19:05:13.357Z,37.11
2023-04-14T19:07:18.358Z,36.62
2023-04-14T19:09:23.370Z,36.11
2023-04-14T19:11:28.420Z,36.25
2023-04-14T19:13:33.530Z,36.02
2023-04-14T19:15:38.943Z,36.09
2023-04-14T19:17:44.257Z,36.17
2023-04-14T19:19:49.429Z,37.14
2023-04-14T19:21:54.531Z,36.97
2023-04-14T19:23:59.646Z,36.75
2023-04-14T19:26:04.658Z,36.95
2023-04-14T19:28:09.602Z,36.28
2023-04-14T19:30:14.578Z,36.14
2023-04-14T19:32:19.783Z,36.54
2023-04-14T19:34:24.808Z,36.78
2023-04-14T19:36:29.888Z,36.36
2023-04-14T19:38:34.879Z,36.34
2023-04-14T19:40:39.896Z,36.04
2023-04-14T19:42:44.927Z,35.91
2023-04-14T19:44:49.936Z,35.97
2023-04-14T19:46:55.188Z,36.02
2023-04-14T19:49:01.029Z,35.96
2023-04-14T19:51:06.400Z,36.38
2023-04-14T19:53:11.558Z,36.29
2023-04-14T19:55:16.618Z,36.04
2023-04-14T19:57:21.606Z,35.91
2023-04-14T19:59:26.654Z,36.29
2023-04-14T20:01:31.972Z,35.94
2023-04-14T20:03:37.769Z,35.88
2023-04-14T20:05:42.922Z,35.87
2023-04-14T20:07:48.119Z,35.88
2023-04-14T20:09:53.143Z,35.91
2023-04-14T20:11:58.112Z,35.88
2023-04-14T20:14:03.140Z,35.93
2023-04-14T20:16:08.258Z,36.06
2023-04-14T20:18:13.295Z,35.93
2023-04-14T20:20:18.414Z,35.91
2023-04-14T20:22:23.525Z,35.91
2023-04-14T20:24:28.557Z,35.92
2023-04-14T20:26:33.644Z,35.93
2023-04-14T20:28:38.668Z,35.91
2023-04-14T20:30:43.908Z,35.89
2023-04-14T20:32:49.157Z,35.9
2023-04-14T20:34:54.337Z,35.9
2023-04-14T20:36:59.372Z,35.96
2023-04-14T20:39:04.866Z,35.99
2023-04-14T20:41:10.097Z,35.94
2023-04-14T20:43:15.124Z,35.93
2023-04-14T20:45:20.230Z,35.92
2023-04-14T20:47:25.343Z,36
2023-04-14T20:49:30.522Z,35.98
2023-04-14T20:51:35.568Z,36.02
2023-04-14T20:53:40.614Z,36
2023-04-14T20:55:45.642Z,36.44
2023-04-14T20:57:50.659Z,36.04
2023-04-14T20:59:55.735Z,35.82
2023-04-14T21:02:00.979Z,36.05
2023-04-14T21:04:06.469Z,35.71
2023-04-14T21:06:11.718Z,35.8
2023-04-14T21:08:16.739Z,35.92
2023-04-14T21:10:21.754Z,35.96
2023-04-14T21:12:36.825Z,36.05
2023-04-14T21:17:33.199Z,36.1
2023-04-14T21:19:38.154Z,36.1
2023-04-14T21:21:43.142Z,36.1
2023-04-14T21:23:48.156Z,36.12
2023-04-14T21:25:53.212Z,36.14
2023-04-14T21:27:58.326Z,36.21
2023-04-14T21:30:03.404Z,36.28
2023-04-14T21:32:08.494Z,36.27
2023-04-14T21:34:13.507Z,36.28
2023-04-14T21:36:18.574Z,36.29
2023-04-14T21:38:23.568Z,36.33
2023-04-14T21:40:28.685Z,36.36
2023-04-14T21:42:33.737Z,36.4
2023-04-14T21:44:38.844Z,36.46
2023-04-14T21:46:44.160Z,36.42
2023-04-14T21:48:49.250Z,36.44
2023-04-14T21:50:54.270Z,36.51
2023-04-14T21:52:59.372Z,36.48
2023-04-14T21:55:04.465Z,36.48
2023-04-14T21:57:09.473Z,36.49
2023-04-14T21:59:14.534Z,36.53
2023-04-14T22:01:19.715Z,36.53
2023-04-14T22:03:25.304Z,36.57
2023-04-14T22:05:30.442Z,36.58
2023-04-14T22:07:35.872Z,36.62
2023-04-14T22:09:42.563Z,36.62
2023-04-14T22:11:48.992Z,36.63
2023-04-14T22:13:54.044Z,36.68
2023-04-14T22:15:59.023Z,36.67
2023-04-14T22:18:04.255Z,36.71
2023-04-14T22:20:09.337Z,36.74
2023-04-14T22:22:14.322Z,36.76
2023-04-14T22:24:19.301Z,36.81
2023-04-14T22:26:24.348Z,36.83
2023-04-14T22:28:29.389Z,36.88
2023-04-14T22:30:34.471Z,36.85
2023-04-14T22:32:39.754Z,36.88
2023-04-14T22:34:44.875Z,36.88
2023-04-14T22:36:49.881Z,36.92
2023-04-14T22:38:54.987Z,36.87
2023-04-14T22:41:00.025Z,36.94
2023-04-14T22:43:04.997Z,36.92
2023-04-14T22:45:10.100Z,36.87
2023-04-14T22:47:15.183Z,36.96
2023-04-14T22:49:20.185Z,36.88
2023-04-14T22:51:25.246Z,36.9
2023-04-14T22:53:30.231Z,36.89
2023-04-14T22:55:35.229Z,36.96
2023-04-14T22:57:40.603Z,37
2023-04-14T22:59:45.625Z,36.97
2023-04-14T23:01:51.044Z,36.95
2023-04-14T23:03:56.456Z,36.95
2023-04-14T23:06:01.473Z,36.95
2023-04-14T23:08:06.458Z,36.95
2023-04-14T23:10:11.466Z,37.03
2023-04-14T23:12:16.450Z,37.03
2023-04-14T23:14:21.461Z,37.18
2023-04-14T23:16:26.757Z,37.18
2023-04-14T23:18:31.785Z,37.16
2023-04-14T23:20:36.810Z,37.22
2023-04-14T23:22:41.958Z,37.2
2023-04-14T23:24:46.971Z,37.21
2023-04-14T23:26:51.952Z,37.3
2023-04-14T23:28:57.003Z,37.31
2023-04-14T23:31:02.219Z,37.35
2023-04-14T23:33:07.377Z,37.36
2023-04-14T23:35:12.404Z,37.33
2023-04-14T23:37:17.493Z,37.37
2023-04-14T23:39:22.524Z,37.43
2023-04-14T23:41:27.538Z,37.48
2023-04-14T23:43:32.588Z,37.5
2023-04-14T23:45:40.753Z,37.51
2023-04-14T23:47:45.971Z,37.51
2023-04-14T23:49:50.973Z,37.5
2023-04-14T23:51:55.968Z,37.51
2023-04-14T23:54:00.968Z,37.52
2023-04-14T23:56:05.967Z,37.5
2023-04-14T23:58:11.091Z,37.54
